Terminal Aerodrome Forecast
Issued by NWS

Home | Current Version | Previous Version | Text Only | Print | Product List | Glossary Off
Versions: 1 2 3 4 5 6 7 8 9 10 11

000
FTUS43 KBIS 271130
TAFMOT
TAF
KMOT 271130Z 2712/2812 22009KT P6SM SCT100 SCT200
     FM271500 26013KT P6SM FEW100 SCT200
     FM271800 31015G22KT P6SM SCT060
     FM280100 28008KT P6SM SKC=

USA.gov is the U.S. government's official web portal to all federal, state and local government web resources and services.